Terminal Aerodrome Forecast
Issued by NWS

Home | Current Version | Previous Version | Text Only | Print | Product List | Glossary On
Versions: 1 2 3 4 5 6 7 8 9 10 11 12 13 14 15 16 17 18 19 20 21 22 23 24 25 26 27 28 29 30 31 32
481
FTUS42 KCAE 230521
TAFDNL
TAF
KDNL 230521Z 2306/2406 VRB04KT 6SM -RA BR BKN004 OVC008
     FM231300 23006KT 4SM SHRA BKN008 OVC015
     FM231800 24008KT 3SM SHRA VCTS BKN015CB
     FM240000 VRB05KT P6SM VCSH BKN008=

USA.gov is the U.S. government's official web portal to all federal, state and local government web resources and services.